sensor_id;sensor_type;location;lat;lon;timestamp;pressure;altitude;pressure_sealevel;temperature;humidity
56825;BME280;42705;50.326;18.772;2023-02-28T00:05:04;99696.50;;;-0.43;53.70
56825;BME280;42705;50.326;18.772;2023-02-28T00:10:28;99692.48;;;-0.47;53.64
56825;BME280;42705;50.326;18.772;2023-02-28T00:15:59;99690.39;;;-0.52;53.80
56825;BME280;42705;50.326;18.772;2023-02-28T00:21:21;99694.64;;;-0.57;53.77
56825;BME280;42705;50.326;18.772;2023-02-28T00:26:43;99695.06;;;-0.61;53.84
56825;BME280;42705;50.326;18.772;2023-02-28T00:32:06;99697.20;;;-0.64;53.71
56825;BME280;42705;50.326;18.772;2023-02-28T00:37:28;99700.33;;;-0.72;53.68
56825;BME280;42705;50.326;18.772;2023-02-28T00:42:51;99702.30;;;-0.83;53.89
56825;BME280;42705;50.326;18.772;2023-02-28T00:48:13;99701.45;;;-0.90;53.89
56825;BME280;42705;50.326;18.772;2023-02-28T00:53:35;99702.67;;;-0.91;54.14
56825;BME280;42705;50.326;18.772;2023-02-28T00:58:56;99704.56;;;-0.91;54.26
56825;BME280;42705;50.326;18.772;2023-02-28T01:04:18;99707.53;;;-0.94;54.14
56825;BME280;42705;50.326;18.772;2023-02-28T01:09:41;99707.55;;;-0.94;54.70
56825;BME280;42705;50.326;18.772;2023-02-28T01:15:04;99706.65;;;-0.92;54.85
56825;BME280;42705;50.326;18.772;2023-02-28T01:20:26;99706.15;;;-0.93;54.88
56825;BME280;42705;50.326;18.772;2023-02-28T01:25:48;99705.98;;;-0.93;54.96
56825;BME280;42705;50.326;18.772;2023-02-28T01:31:10;99706.59;;;-0.97;55.21
56825;BME280;42705;50.326;18.772;2023-02-28T01:36:33;99704.81;;;-0.95;55.17
56825;BME280;42705;50.326;18.772;2023-02-28T01:41:55;99696.32;;;-0.91;55.75
56825;BME280;42705;50.326;18.772;2023-02-28T01:47:17;99690.51;;;-0.92;55.67
56825;BME280;42705;50.326;18.772;2023-02-28T01:52:39;99688.29;;;-0.99;55.64
56825;BME280;42705;50.326;18.772;2023-02-28T01:58:04;99685.25;;;-1.09;55.76
56825;BME280;42705;50.326;18.772;2023-02-28T02:03:28;99688.00;;;-1.17;55.82
56825;BME280;42705;50.326;18.772;2023-02-28T02:08:50;99685.22;;;-1.23;56.02
56825;BME280;42705;50.326;18.772;2023-02-28T02:14:37;99685.38;;;-1.29;56.35
56825;BME280;42705;50.326;18.772;2023-02-28T02:42:08;99683.64;;;-1.37;57.17
56825;BME280;42705;50.326;18.772;2023-02-28T02:47:34;99675.66;;;-1.47;57.41
56825;BME280;42705;50.326;18.772;2023-02-28T02:53:00;99674.36;;;-1.58;57.49
56825;BME280;42705;50.326;18.772;2023-02-28T02:58:27;99673.20;;;-1.69;57.69
56825;BME280;42705;50.326;18.772;2023-02-28T03:03:51;99676.21;;;-1.82;57.96
56825;BME280;42705;50.326;18.772;2023-02-28T03:09:13;99679.65;;;-1.91;58.31
56825;BME280;42705;50.326;18.772;2023-02-28T03:14:56;99684.59;;;-1.99;58.35
56825;BME280;42705;50.326;18.772;2023-02-28T03:20:45;99685.92;;;-2.05;58.48
56825;BME280;42705;50.326;18.772;2023-02-28T03:26:23;99684.47;;;-2.01;58.93
56825;BME280;42705;50.326;18.772;2023-02-28T03:31:59;99684.11;;;-2.00;58.96
56825;BME280;42705;50.326;18.772;2023-02-28T03:37:25;99692.11;;;-2.06;59.08
56825;BME280;42705;50.326;18.772;2023-02-28T03:42:51;99696.52;;;-2.13;59.19
56825;BME280;42705;50.326;18.772;2023-02-28T03:48:27;99707.14;;;-2.23;59.18
56825;BME280;42705;50.326;18.772;2023-02-28T03:53:55;99706.06;;;-2.30;59.33
56825;BME280;42705;50.326;18.772;2023-02-28T03:59:26;99707.95;;;-2.39;59.50
56825;BME280;42705;50.326;18.772;2023-02-28T04:04:50;99710.66;;;-2.48;59.69
56825;BME280;42705;50.326;18.772;2023-02-28T04:10:13;99708.41;;;-2.56;59.80
56825;BME280;42705;50.326;18.772;2023-02-28T04:15:34;99712.13;;;-2.63;59.85
56825;BME280;42705;50.326;18.772;2023-02-28T04:20:59;99715.10;;;-2.68;59.93
56825;BME280;42705;50.326;18.772;2023-02-28T04:26:21;99718.52;;;-2.68;60.15
56825;BME280;42705;50.326;18.772;2023-02-28T04:31:43;99716.85;;;-2.70;60.15
56825;BME280;42705;50.326;18.772;2023-02-28T04:37:05;99726.34;;;-2.75;60.32
56825;BME280;42705;50.326;18.772;2023-02-28T04:42:27;99728.66;;;-2.81;60.42
56825;BME280;42705;50.326;18.772;2023-02-28T04:47:56;99730.98;;;-2.87;60.57
56825;BME280;42705;50.326;18.772;2023-02-28T04:53:18;99738.02;;;-2.90;60.82
56825;BME280;42705;50.326;18.772;2023-02-28T04:58:40;99741.94;;;-2.89;60.88
56825;BME280;42705;50.326;18.772;2023-02-28T05:04:03;99743.66;;;-2.90;61.11
56825;BME280;42705;50.326;18.772;2023-02-28T05:09:26;99742.36;;;-2.94;61.27
56825;BME280;42705;50.326;18.772;2023-02-28T05:14:48;99744.15;;;-2.99;61.15
56825;BME280;42705;50.326;18.772;2023-02-28T05:20:10;99745.27;;;-3.06;61.38
56825;BME280;42705;50.326;18.772;2023-02-28T05:25:32;99749.36;;;-3.06;61.46
56825;BME280;42705;50.326;18.772;2023-02-28T05:30:54;99749.82;;;-3.00;61.68
56825;BME280;42705;50.326;18.772;2023-02-28T05:36:16;99752.70;;;-2.99;61.75
56825;BME280;42705;50.326;18.772;2023-02-28T05:41:40;99756.38;;;-3.05;61.86
56825;BME280;42705;50.326;18.772;2023-02-28T05:47:02;99756.63;;;-3.10;61.86
56825;BME280;42705;50.326;18.772;2023-02-28T05:52:24;99766.42;;;-3.16;62.01
56825;BME280;42705;50.326;18.772;2023-02-28T05:57:45;99774.20;;;-3.21;61.98
56825;BME280;42705;50.326;18.772;2023-02-28T06:03:07;99780.66;;;-3.18;62.13
56825;BME280;42705;50.326;18.772;2023-02-28T06:08:29;99783.55;;;-3.17;62.30
56825;BME280;42705;50.326;18.772;2023-02-28T06:13:56;99791.37;;;-3.14;62.27
56825;BME280;42705;50.326;18.772;2023-02-28T06:19:18;99792.52;;;-3.10;62.36
56825;BME280;42705;50.326;18.772;2023-02-28T06:24:40;99799.44;;;-3.05;62.14
56825;BME280;42705;50.326;18.772;2023-02-28T06:30:02;99799.25;;;-2.92;62.18
56825;BME280;42705;50.326;18.772;2023-02-28T06:35:25;99804.02;;;-2.76;62.34
56825;BME280;42705;50.326;18.772;2023-02-28T06:40:54;99809.96;;;-2.63;62.03
56825;BME280;42705;50.326;18.772;2023-02-28T06:46:16;99813.98;;;-2.57;61.88
56825;BME280;42705;50.326;18.772;2023-02-28T06:51:42;99816.48;;;-2.53;61.86
56825;BME280;42705;50.326;18.772;2023-02-28T06:57:06;99813.33;;;-2.47;61.95
56825;BME280;42705;50.326;18.772;2023-02-28T07:02:28;99810.79;;;-2.39;61.89
56825;BME280;42705;50.326;18.772;2023-02-28T07:07:50;99814.74;;;-2.29;61.79
56825;BME280;42705;50.326;18.772;2023-02-28T07:13:14;99818.93;;;-2.23;61.55
56825;BME280;42705;50.326;18.772;2023-02-28T07:18:36;99819.06;;;-2.11;61.96
56825;BME280;42705;50.326;18.772;2023-02-28T07:23:59;99817.25;;;-1.95;61.84
56825;BME280;42705;50.326;18.772;2023-02-28T07:29:21;99819.55;;;-1.81;61.94
56825;BME280;42705;50.326;18.772;2023-02-28T07:34:42;99827.48;;;-1.64;61.78
56825;BME280;42705;50.326;18.772;2023-02-28T07:40:07;99823.27;;;-1.50;61.47
56825;BME280;42705;50.326;18.772;2023-02-28T07:45:35;99823.71;;;-1.38;61.04
56825;BME280;42705;50.326;18.772;2023-02-28T07:50:58;99826.20;;;-1.17;61.25
56825;BME280;42705;50.326;18.772;2023-02-28T07:56:21;99824.95;;;-0.91;61.09
56825;BME280;42705;50.326;18.772;2023-02-28T08:01:42;99820.49;;;-0.75;60.82
56825;BME280;42705;50.326;18.772;2023-02-28T08:07:06;99824.71;;;-0.64;60.41
56825;BME280;42705;50.326;18.772;2023-02-28T08:12:28;99826.02;;;-0.61;60.21
56825;BME280;42705;50.326;18.772;2023-02-28T08:17:49;99828.77;;;-0.54;59.83
56825;BME280;42705;50.326;18.772;2023-02-28T08:23:11;99828.91;;;-0.52;59.51
56825;BME280;42705;50.326;18.772;2023-02-28T08:28:33;99832.77;;;-0.49;59.24
56825;BME280;42705;50.326;18.772;2023-02-28T08:33:55;99827.98;;;-0.41;59.04
56825;BME280;42705;50.326;18.772;2023-02-28T08:39:20;99830.20;;;-0.34;58.92
56825;BME280;42705;50.326;18.772;2023-02-28T08:44:42;99836.59;;;-0.22;58.51
56825;BME280;42705;50.326;18.772;2023-02-28T08:50:04;99829.71;;;-0.14;58.44
56825;BME280;42705;50.326;18.772;2023-02-28T08:55:26;99833.73;;;-0.02;58.12
56825;BME280;42705;50.326;18.772;2023-02-28T09:00:48;99836.60;;;0.06;57.78
56825;BME280;42705;50.326;18.772;2023-02-28T09:06:11;99829.47;;;0.23;57.60
56825;BME280;42705;50.326;18.772;2023-02-28T09:11:36;99825.09;;;0.32;57.16
56825;BME280;42705;50.326;18.772;2023-02-28T09:16:58;99833.29;;;0.53;56.96
56825;BME280;42705;50.326;18.772;2023-02-28T09:22:20;99837.05;;;0.72;55.93
56825;BME280;42705;50.326;18.772;2023-02-28T09:27:43;99830.04;;;0.89;55.28
56825;BME280;42705;50.326;18.772;2023-02-28T09:33:05;99830.48;;;1.16;55.05
56825;BME280;42705;50.326;18.772;2023-02-28T09:38:27;99828.08;;;1.38;54.65
56825;BME280;42705;50.326;18.772;2023-02-28T09:43:52;99832.05;;;1.59;54.39
56825;BME280;42705;50.326;18.772;2023-02-28T09:49:18;99828.45;;;1.76;53.96
56825;BME280;42705;50.326;18.772;2023-02-28T09:54:41;99827.97;;;1.84;53.82
56825;BME280;42705;50.326;18.772;2023-02-28T10:00:13;99836.88;;;1.97;53.27
56825;BME280;42705;50.326;18.772;2023-02-28T10:11:16;99842.76;;;2.01;53.13
56825;BME280;42705;50.326;18.772;2023-02-28T10:28:24;99831.03;;;1.85;52.41
56825;BME280;42705;50.326;18.772;2023-02-28T10:33:47;99824.70;;;1.95;52.65
56825;BME280;42705;50.326;18.772;2023-02-28T10:39:44;99819.09;;;2.03;52.58
56825;BME280;42705;50.326;18.772;2023-02-28T10:56:24;99810.83;;;2.18;51.55
56825;BME280;42705;50.326;18.772;2023-02-28T11:01:47;99807.05;;;2.32;51.25
56825;BME280;42705;50.326;18.772;2023-02-28T11:07:23;99803.02;;;2.58;50.84
56825;BME280;42705;50.326;18.772;2023-02-28T11:12:47;99800.70;;;2.84;50.94
56825;BME280;42705;50.326;18.772;2023-02-28T11:23:36;99787.42;;;3.07;50.36
56825;BME280;42705;50.326;18.772;2023-02-28T11:29:18;99780.52;;;3.38;50.09
56825;BME280;42705;50.326;18.772;2023-02-28T11:34:43;99771.16;;;3.51;49.95
56825;BME280;42705;50.326;18.772;2023-02-28T11:40:30;99767.39;;;3.59;49.50
56825;BME280;42705;50.326;18.772;2023-02-28T11:52:19;99753.95;;;3.41;48.70
56825;BME280;42705;50.326;18.772;2023-02-28T12:20:27;99732.52;;;4.43;48.05
56825;BME280;42705;50.326;18.772;2023-02-28T12:31:35;99720.80;;;6.93;45.07
56825;BME280;42705;50.326;18.772;2023-02-28T12:37:03;99714.21;;;10.32;41.58
56825;BME280;42705;50.326;18.772;2023-02-28T12:42:30;99700.71;;;13.61;38.76
56825;BME280;42705;50.326;18.772;2023-02-28T12:48:06;99692.83;;;16.12;36.92
56825;BME280;42705;50.326;18.772;2023-02-28T12:59:39;99679.98;;;20.52;32.98
56825;BME280;42705;50.326;18.772;2023-02-28T13:05:24;99676.27;;;21.84;31.29
56825;BME280;42705;50.326;18.772;2023-02-28T13:10:51;99674.44;;;22.24;29.96
56825;BME280;42705;50.326;18.772;2023-02-28T13:16:16;99672.48;;;22.72;29.14
56825;BME280;42705;50.326;18.772;2023-02-28T13:21:44;99671.67;;;23.42;28.51
56825;BME280;42705;50.326;18.772;2023-02-28T13:32:32;99665.00;;;24.07;27.59
56825;BME280;42705;50.326;18.772;2023-02-28T13:38:12;99660.80;;;24.40;26.58
56825;BME280;42705;50.326;18.772;2023-02-28T14:01:06;99646.02;;;25.18;23.88
56825;BME280;42705;50.326;18.772;2023-02-28T14:06:30;99642.17;;;24.58;23.38
56825;BME280;42705;50.326;18.772;2023-02-28T14:11:54;99637.66;;;23.25;23.04
56825;BME280;42705;50.326;18.772;2023-02-28T14:17:17;99637.20;;;22.01;23.50
56825;BME280;42705;50.326;18.772;2023-02-28T14:28:40;99630.13;;;20.87;23.94
56825;BME280;42705;50.326;18.772;2023-02-28T14:39:33;99619.38;;;20.66;24.39
56825;BME280;42705;50.326;18.772;2023-02-28T14:44:57;99618.11;;;20.66;24.55
56825;BME280;42705;50.326;18.772;2023-02-28T14:50:33;99609.48;;;20.39;24.29
56825;BME280;42705;50.326;18.772;2023-02-28T14:55:56;99602.48;;;19.91;24.34
56825;BME280;42705;50.326;18.772;2023-02-28T15:01:21;99607.13;;;19.42;24.49
56825;BME280;42705;50.326;18.772;2023-02-28T15:06:44;99610.29;;;19.52;24.55
56825;BME280;42705;50.326;18.772;2023-02-28T15:12:06;99610.44;;;19.26;24.68
56825;BME280;42705;50.326;18.772;2023-02-28T15:17:29;99609.55;;;18.96;24.75
56825;BME280;42705;50.326;18.772;2023-02-28T15:22:52;99606.38;;;18.53;24.72
56825;BME280;42705;50.326;18.772;2023-02-28T15:28:20;99613.69;;;17.85;24.88
56825;BME280;42705;50.326;18.772;2023-02-28T15:33:53;99611.02;;;17.61;25.38
56825;BME280;42705;50.326;18.772;2023-02-28T15:39:23;99611.03;;;17.03;25.41
56825;BME280;42705;50.326;18.772;2023-02-28T15:44:45;99616.44;;;16.43;25.66
56825;BME280;42705;50.326;18.772;2023-02-28T15:50:12;99618.27;;;15.80;26.02
56825;BME280;42705;50.326;18.772;2023-02-28T15:55:36;99620.45;;;15.24;26.26
56825;BME280;42705;50.326;18.772;2023-02-28T16:01:19;99615.41;;;14.56;26.39
56825;BME280;42705;50.326;18.772;2023-02-28T16:06:43;99625.00;;;13.05;26.89
56825;BME280;42705;50.326;18.772;2023-02-28T16:12:08;99629.17;;;11.58;27.58
56825;BME280;42705;50.326;18.772;2023-02-28T16:17:38;99630.97;;;10.19;28.64
56825;BME280;42705;50.326;18.772;2023-02-28T16:23:00;99635.04;;;8.85;29.39
56825;BME280;42705;50.326;18.772;2023-02-28T16:28:29;99637.16;;;7.51;30.37
56825;BME280;42705;50.326;18.772;2023-02-28T16:33:52;99643.99;;;6.46;31.39
56825;BME280;42705;50.326;18.772;2023-02-28T16:39:14;99648.09;;;5.61;32.26
56825;BME280;42705;50.326;18.772;2023-02-28T16:44:36;99652.73;;;4.88;33.34
56825;BME280;42705;50.326;18.772;2023-02-28T16:49:58;99655.79;;;4.22;34.17
56825;BME280;42705;50.326;18.772;2023-02-28T16:55:22;99661.50;;;3.71;35.06
56825;BME280;42705;50.326;18.772;2023-02-28T17:00:45;99667.79;;;3.28;35.74
56825;BME280;42705;50.326;18.772;2023-02-28T17:06:26;99666.98;;;2.96;36.64
56825;BME280;42705;50.326;18.772;2023-02-28T17:11:49;99676.75;;;2.68;37.23
56825;BME280;42705;50.326;18.772;2023-02-28T17:17:18;99684.45;;;2.47;37.87
56825;BME280;42705;50.326;18.772;2023-02-28T17:22:41;99685.88;;;2.27;38.34
56825;BME280;42705;50.326;18.772;2023-02-28T17:28:03;99689.09;;;2.09;38.70
56825;BME280;42705;50.326;18.772;2023-02-28T17:33:26;99683.78;;;1.94;39.40
56825;BME280;42705;50.326;18.772;2023-02-28T17:38:48;99685.92;;;1.77;39.70
56825;BME280;42705;50.326;18.772;2023-02-28T17:44:11;99686.20;;;1.64;40.22
56825;BME280;42705;50.326;18.772;2023-02-28T17:49:33;99690.66;;;1.50;40.49
56825;BME280;42705;50.326;18.772;2023-02-28T17:54:56;99688.75;;;1.39;41.01
56825;BME280;42705;50.326;18.772;2023-02-28T18:00:19;99688.02;;;1.30;41.43
56825;BME280;42705;50.326;18.772;2023-02-28T18:05:41;99687.77;;;1.22;41.71
56825;BME280;42705;50.326;18.772;2023-02-28T18:11:04;99689.39;;;1.14;42.06
56825;BME280;42705;50.326;18.772;2023-02-28T18:16:26;99692.55;;;1.07;42.43
56825;BME280;42705;50.326;18.772;2023-02-28T18:21:52;99693.96;;;1.00;42.69
56825;BME280;42705;50.326;18.772;2023-02-28T18:27:14;99689.00;;;0.94;42.92
56825;BME280;42705;50.326;18.772;2023-02-28T18:32:36;99695.52;;;0.89;43.05
56825;BME280;42705;50.326;18.772;2023-02-28T18:38:28;99692.09;;;0.83;43.46
56825;BME280;42705;50.326;18.772;2023-02-28T18:43:50;99697.96;;;0.77;43.60
56825;BME280;42705;50.326;18.772;2023-02-28T18:49:12;99698.82;;;0.71;43.78
56825;BME280;42705;50.326;18.772;2023-02-28T18:54:34;99695.02;;;0.66;44.09
56825;BME280;42705;50.326;18.772;2023-02-28T18:59:56;99693.13;;;0.60;44.31
56825;BME280;42705;50.326;18.772;2023-02-28T19:05:19;99691.05;;;0.55;44.51
56825;BME280;42705;50.326;18.772;2023-02-28T19:10:41;99693.55;;;0.52;44.84
56825;BME280;42705;50.326;18.772;2023-02-28T19:16:06;99692.31;;;0.47;45.01
56825;BME280;42705;50.326;18.772;2023-02-28T19:21:28;99693.33;;;0.42;45.27
56825;BME280;42705;50.326;18.772;2023-02-28T19:26:50;99690.75;;;0.36;45.46
56825;BME280;42705;50.326;18.772;2023-02-28T19:32:12;99691.23;;;0.31;45.68
56825;BME280;42705;50.326;18.772;2023-02-28T19:37:38;99689.71;;;0.24;45.97
56825;BME280;42705;50.326;18.772;2023-02-28T19:43:01;99694.98;;;0.20;46.10
56825;BME280;42705;50.326;18.772;2023-02-28T19:48:23;99698.52;;;0.17;46.16
56825;BME280;42705;50.326;18.772;2023-02-28T19:53:47;99700.48;;;0.14;46.53
56825;BME280;42705;50.326;18.772;2023-02-28T19:59:09;99696.11;;;0.11;46.69
56825;BME280;42705;50.326;18.772;2023-02-28T20:04:31;99694.30;;;0.08;46.94
56825;BME280;42705;50.326;18.772;2023-02-28T20:09:53;99694.70;;;-0.01;47.20
56825;BME280;42705;50.326;18.772;2023-02-28T20:15:16;99698.62;;;-0.06;47.37
56825;BME280;42705;50.326;18.772;2023-02-28T20:20:38;99700.35;;;-0.12;47.84
56825;BME280;42705;50.326;18.772;2023-02-28T20:26:02;99700.63;;;-0.24;48.14
56825;BME280;42705;50.326;18.772;2023-02-28T20:31:25;99701.67;;;-0.30;48.34
56825;BME280;42705;50.326;18.772;2023-02-28T20:36:48;99701.10;;;-0.35;48.59
56825;BME280;42705;50.326;18.772;2023-02-28T20:42:10;99696.95;;;-0.40;48.95
56825;BME280;42705;50.326;18.772;2023-02-28T20:47:32;99691.48;;;-0.49;49.02
56825;BME280;42705;50.326;18.772;2023-02-28T20:52:54;99692.13;;;-0.60;49.23
56825;BME280;42705;50.326;18.772;2023-02-28T20:58:16;99691.04;;;-0.65;49.14
56825;BME280;42705;50.326;18.772;2023-02-28T21:03:38;99688.35;;;-0.67;49.46
56825;BME280;42705;50.326;18.772;2023-02-28T21:09:06;99686.89;;;-0.70;49.85
56825;BME280;42705;50.326;18.772;2023-02-28T21:14:29;99683.59;;;-0.75;49.93
56825;BME280;42705;50.326;18.772;2023-02-28T21:19:52;99679.66;;;-0.76;50.36
56825;BME280;42705;50.326;18.772;2023-02-28T21:25:14;99680.33;;;-0.75;50.20
56825;BME280;42705;50.326;18.772;2023-02-28T21:30:36;99682.20;;;-0.75;50.27
56825;BME280;42705;50.326;18.772;2023-02-28T21:36:04;99683.27;;;-0.76;50.15
56825;BME280;42705;50.326;18.772;2023-02-28T21:41:27;99682.52;;;-0.81;50.73
56825;BME280;42705;50.326;18.772;2023-02-28T21:46:50;99687.69;;;-0.81;50.70
56825;BME280;42705;50.326;18.772;2023-02-28T21:52:17;99685.56;;;-0.86;50.91
56825;BME280;42705;50.326;18.772;2023-02-28T21:57:42;99683.73;;;-0.88;50.84
56825;BME280;42705;50.326;18.772;2023-02-28T22:03:06;99686.13;;;-0.88;50.84
56825;BME280;42705;50.326;18.772;2023-02-28T22:08:28;99695.77;;;-0.89;50.99
56825;BME280;42705;50.326;18.772;2023-02-28T22:13:52;99696.73;;;-0.94;51.12
56825;BME280;42705;50.326;18.772;2023-02-28T22:19:16;99700.83;;;-1.01;51.22
56825;BME280;42705;50.326;18.772;2023-02-28T22:24:38;99694.58;;;-1.05;51.45
56825;BME280;42705;50.326;18.772;2023-02-28T22:30:00;99695.54;;;-1.09;51.66
56825;BME280;42705;50.326;18.772;2023-02-28T22:35:22;99706.73;;;-1.10;51.92
56825;BME280;42705;50.326;18.772;2023-02-28T22:40:44;99711.04;;;-1.11;51.93
56825;BME280;42705;50.326;18.772;2023-02-28T22:46:07;99711.40;;;-1.12;52.06
56825;BME280;42705;50.326;18.772;2023-02-28T22:51:31;99711.44;;;-1.22;52.36
56825;BME280;42705;50.326;18.772;2023-02-28T22:56:53;99717.25;;;-1.38;52.49
56825;BME280;42705;50.326;18.772;2023-02-28T23:02:15;99717.42;;;-1.53;52.77
56825;BME280;42705;50.326;18.772;2023-02-28T23:07:39;99720.60;;;-1.66;52.98
56825;BME280;42705;50.326;18.772;2023-02-28T23:13:02;99728.66;;;-1.75;53.16
56825;BME280;42705;50.326;18.772;2023-02-28T23:18:24;99729.46;;;-1.81;53.35
56825;BME280;42705;50.326;18.772;2023-02-28T23:23:45;99734.73;;;-1.79;53.80
56825;BME280;42705;50.326;18.772;2023-02-28T23:29:07;99735.27;;;-1.80;54.02
56825;BME280;42705;50.326;18.772;2023-02-28T23:34:29;99727.27;;;-1.82;54.17
56825;BME280;42705;50.326;18.772;2023-02-28T23:39:53;99728.48;;;-1.84;54.27
56825;BME280;42705;50.326;18.772;2023-02-28T23:45:14;99724.98;;;-1.88;54.43
56825;BME280;42705;50.326;18.772;2023-02-28T23:50:36;99717.44;;;-1.97;54.49
56825;BME280;42705;50.326;18.772;2023-02-28T23:55:59;99716.84;;;-2.01;54.63
